logo dgac
Miércoles 19 de Junio del 2024
Buscar por aerodromo o helipuerto
Ingrese nombre de aeródromo, localidad o designador OACI:
TAF: TAF SCAT 191008Z 1912/2012 15004KT CAVOK TX17/1918Z TN10/2010Z BECMG 1916/1918 24012KT BECMG 1922/2000 14004KT BECMG 2002/2004 36006KT OVC002 TEMPO 2010/2012 5000 -DZ SCT002 OVC008
TAF del 19/06/2024 a las 10:08 UTC
Para mayor información visite www.meteochile.gob.cl
Período de validez: desde el 19 a las 12:00 UTC hasta el 20 a las 12:00 UTC
Viento: dirección 150 grados, velocidad 4 nudos
Visibilidad: 10 km o más,
    sin nubes bajo los 5.000 pies o bajo del MSA (Mínimo de Seguridad del Aeródromo),
    sin cumulonimbus, y sin fenómenos de tiempo significativo en el aeródromo o alrededores
Temperatura máxima: 17ºC el 19 a las 18:00 UTC
Temperatura mínima: 10ºC el 20 a las 10:00 UTC
Se espera un cambio entre las 16:00 UTC del 19 y las 18:00 UTC del 19, :
Viento: dirección 240 grados, velocidad 12 nudos
Se espera un cambio entre las 22:00 UTC del 19 y las 00:00 UTC del 20, :
Viento: dirección 140 grados, velocidad 4 nudos
Se espera un cambio entre las 02:00 UTC del 20 y las 04:00 UTC del 20, :
Viento: dirección 360 grados, velocidad 6 nudos
Nubes: Cubierto a 200 pies sobre el nivel del aeródromo
Se espera en forma temporal entre las 10:00 UTC del 20 y las 12:00 UTC del 20:
Visibilidad: 5000 metros
Débil LLovizna
Nubes: Nubosidad parcial a 200 pies sobre el nivel del aeródromo
Nubes: Cubierto a 800 pies sobre el nivel del aeródromo